createdAt,value
2018-10-09T00:00:18.572Z,10.23
2018-10-09T00:02:53.102Z,10.27
2018-10-09T00:05:27.832Z,10.31
2018-10-09T00:08:02.373Z,10.35
2018-10-09T00:10:37.288Z,10.46
2018-10-09T00:13:11.612Z,10.56
2018-10-09T00:15:46.742Z,10.63
2018-10-09T00:18:27.169Z,10.74
2018-10-09T00:21:01.543Z,10.84
2018-10-09T00:23:36.437Z,10.90
2018-10-09T00:26:11.557Z,10.96
2018-10-09T00:28:46.275Z,10.99
2018-10-09T00:31:20.832Z,11.06
2018-10-09T00:33:55.540Z,11.13
2018-10-09T00:36:30.155Z,11.21
2018-10-09T00:39:07.000Z,11.30
2018-10-09T00:41:41.704Z,11.37
2018-10-09T00:44:16.787Z,11.44
2018-10-09T00:46:51.858Z,11.47
2018-10-09T00:49:26.409Z,11.51
2018-10-09T00:52:01.580Z,11.61
2018-10-09T00:54:36.430Z,11.61
2018-10-09T00:57:10.911Z,11.67
2018-10-09T00:59:45.647Z,11.69
2018-10-09T01:02:20.107Z,11.73
2018-10-09T01:04:56.067Z,11.79
2018-10-09T01:07:30.666Z,11.81
2018-10-09T01:10:05.267Z,11.91
2018-10-09T01:12:40.255Z,11.88
2018-10-09T01:15:14.831Z,11.89
2018-10-09T01:17:49.477Z,11.96
2018-10-09T01:20:31.250Z,11.98
2018-10-09T01:23:07.226Z,11.96
2018-10-09T01:25:42.096Z,12.01
2018-10-09T01:28:16.655Z,12.01
2018-10-09T01:30:51.048Z,12.08
2018-10-09T01:33:25.787Z,12.11
2018-10-09T01:36:00.291Z,12.13
2018-10-09T01:38:34.979Z,12.10
2018-10-09T01:41:09.276Z,12.15
2018-10-09T01:43:43.676Z,12.20
2018-10-09T01:46:18.060Z,12.21
2018-10-09T01:48:52.477Z,12.22
2018-10-09T01:51:28.662Z,12.20
2018-10-09T01:54:03.458Z,12.15
2018-10-09T01:56:38.255Z,12.14
2018-10-09T01:59:12.968Z,12.17
2018-10-09T02:01:47.848Z,12.17
2018-10-09T02:04:22.853Z,12.18
2018-10-09T02:06:57.662Z,12.25
2018-10-09T02:09:32.251Z,12.20
2018-10-09T02:12:06.975Z,12.20
2018-10-09T02:14:41.807Z,12.24
2018-10-09T02:17:16.232Z,12.31
2018-10-09T02:19:50.999Z,12.29
2018-10-09T02:22:25.379Z,12.42
2018-10-09T02:24:59.756Z,12.30
2018-10-09T02:27:34.219Z,12.27
2018-10-09T02:30:09.595Z,12.27
2018-10-09T02:32:44.133Z,12.27
2018-10-09T02:35:19.524Z,12.32
2018-10-09T02:37:53.891Z,12.36
2018-10-09T02:40:29.347Z,12.43
2018-10-09T02:43:03.708Z,12.42
2018-10-09T02:45:38.612Z,12.44
2018-10-09T02:48:12.864Z,12.47
2018-10-09T02:50:47.574Z,12.48
2018-10-09T02:53:22.041Z,12.45
2018-10-09T02:55:57.396Z,12.47
2018-10-09T02:58:32.100Z,12.47
2018-10-09T03:01:06.940Z,12.50
2018-10-09T03:03:41.829Z,12.53
2018-10-09T03:06:16.936Z,12.55
2018-10-09T03:08:51.279Z,12.60
2018-10-09T03:11:26.136Z,12.63
2018-10-09T03:14:00.623Z,12.61
2018-10-09T03:16:35.171Z,12.61
2018-10-09T03:19:10.019Z,12.63
2018-10-09T03:21:44.339Z,12.63
2018-10-09T03:24:18.771Z,12.64
2018-10-09T03:26:53.760Z,12.65
2018-10-09T03:29:28.903Z,12.71
2018-10-09T03:32:03.983Z,12.70
2018-10-09T03:34:38.564Z,12.66
2018-10-09T03:37:13.312Z,12.66
2018-10-09T03:39:48.175Z,12.65
2018-10-09T03:42:22.763Z,12.69
2018-10-09T03:44:57.205Z,12.69
2018-10-09T03:47:32.540Z,12.69
2018-10-09T03:50:07.175Z,12.72
2018-10-09T03:52:41.701Z,12.72
2018-10-09T03:55:16.363Z,12.74
2018-10-09T03:57:51.659Z,12.76
2018-10-09T04:00:26.354Z,12.74
2018-10-09T04:03:01.567Z,12.72
2018-10-09T04:05:36.051Z,12.72
2018-10-09T04:08:10.547Z,12.76
2018-10-09T04:10:45.365Z,12.82
2018-10-09T04:13:19.963Z,12.88
2018-10-09T04:15:54.417Z,12.82
2018-10-09T04:18:28.879Z,12.84
2018-10-09T04:21:03.283Z,12.79
2018-10-09T04:23:38.208Z,12.74
2018-10-09T04:26:13.143Z,12.74
2018-10-09T04:28:47.964Z,12.75
2018-10-09T04:31:22.448Z,12.77
2018-10-09T04:33:57.357Z,12.74
2018-10-09T04:36:32.112Z,12.76
2018-10-09T04:39:08.336Z,12.78
2018-10-09T04:41:43.575Z,12.84
2018-10-09T04:44:18.144Z,12.82
2018-10-09T04:46:53.810Z,12.84
2018-10-09T04:49:28.324Z,12.83
2018-10-09T04:52:03.261Z,12.87
2018-10-09T04:54:38.089Z,12.86
2018-10-09T04:57:12.739Z,12.86
2018-10-09T04:59:47.362Z,12.85
2018-10-09T05:02:22.651Z,12.86
2018-10-09T05:04:57.084Z,12.88
2018-10-09T05:07:32.028Z,12.85
2018-10-09T05:10:06.828Z,12.90
2018-10-09T05:12:41.351Z,12.91
2018-10-09T05:15:16.136Z,12.94
2018-10-09T05:17:50.713Z,12.96
2018-10-09T05:20:26.183Z,12.94
2018-10-09T05:23:00.849Z,12.99
2018-10-09T05:25:35.627Z,13.05
2018-10-09T05:28:12.647Z,13.02
2018-10-09T05:30:47.420Z,13.05
2018-10-09T05:33:22.120Z,13.05
2018-10-09T05:35:56.587Z,13.03
2018-10-09T05:38:31.168Z,13.04
2018-10-09T05:41:05.844Z,13.04
2018-10-09T05:43:51.117Z,13.05
2018-10-09T05:46:25.679Z,13.06
2018-10-09T05:49:00.540Z,13.08
2018-10-09T05:51:35.031Z,13.11
2018-10-09T05:54:09.447Z,13.13
2018-10-09T05:56:44.113Z,13.16
2018-10-09T05:59:18.980Z,13.19
2018-10-09T06:01:53.484Z,13.23
2018-10-09T06:04:28.002Z,13.26
2018-10-09T06:07:02.650Z,13.32
2018-10-09T06:09:37.335Z,13.37
2018-10-09T06:12:12.163Z,13.39
2018-10-09T06:14:46.962Z,13.47
2018-10-09T06:17:21.529Z,13.50
2018-10-09T06:19:56.589Z,13.56
2018-10-09T06:22:31.131Z,13.61
2018-10-09T06:25:06.027Z,13.70
2018-10-09T06:27:40.880Z,13.74
2018-10-09T06:30:15.418Z,13.79
2018-10-09T06:32:50.435Z,13.88
2018-10-09T06:35:24.982Z,13.93
2018-10-09T06:37:59.391Z,13.99
2018-10-09T06:40:33.860Z,14.02
2018-10-09T06:43:08.783Z,14.08
2018-10-09T06:45:43.385Z,14.13
2018-10-09T06:48:18.202Z,14.23
2018-10-09T06:50:53.249Z,14.33
2018-10-09T06:53:28.108Z,14.42
2018-10-09T06:56:03.204Z,14.46
2018-10-09T06:58:37.835Z,14.56
2018-10-09T07:01:13.159Z,14.68
2018-10-09T07:03:47.632Z,14.77
2018-10-09T07:06:23.072Z,14.81
2018-10-09T07:08:57.443Z,14.83
2018-10-09T07:11:31.741Z,14.91
2018-10-09T07:14:07.104Z,14.92
2018-10-09T07:16:41.392Z,15.01
2018-10-09T07:19:15.816Z,14.97
2018-10-09T07:21:51.495Z,14.93
2018-10-09T07:24:25.783Z,14.89
2018-10-09T07:27:00.315Z,14.87
2018-10-09T07:29:34.724Z,14.97
2018-10-09T07:32:10.026Z,15.05
2018-10-09T07:34:44.456Z,15.09
2018-10-09T07:37:20.370Z,15.18
2018-10-09T07:39:54.791Z,15.15
2018-10-09T07:42:29.458Z,15.21
2018-10-09T07:45:04.265Z,15.27
2018-10-09T07:47:38.672Z,15.23
2018-10-09T07:50:13.092Z,15.12
2018-10-09T07:52:47.792Z,15.05
2018-10-09T07:55:22.479Z,15.09
2018-10-09T07:57:57.271Z,15.08
2018-10-09T08:00:31.800Z,15.16
2018-10-09T08:03:06.451Z,15.26
2018-10-09T08:05:41.319Z,15.40
2018-10-09T08:08:16.311Z,15.43
2018-10-09T08:10:51.624Z,15.51
2018-10-09T08:13:26.455Z,15.61
2018-10-09T08:16:01.422Z,15.68
2018-10-09T08:18:35.864Z,15.88
2018-10-09T08:21:10.634Z,16.06
2018-10-09T08:23:45.000Z,16.11
2018-10-09T08:26:19.420Z,16.19
2018-10-09T08:28:54.048Z,16.23
2018-10-09T08:31:28.880Z,16.26
2018-10-09T08:34:03.833Z,16.27
2018-10-09T08:36:38.373Z,16.41
2018-10-09T08:39:13.407Z,16.60
2018-10-09T08:41:47.777Z,16.72
2018-10-09T08:44:22.361Z,16.94
2018-10-09T08:46:57.092Z,17.13
2018-10-09T08:49:31.663Z,17.32
2018-10-09T08:52:06.892Z,17.50
2018-10-09T08:54:41.903Z,17.58
2018-10-09T08:57:16.555Z,17.63
2018-10-09T08:59:51.328Z,17.57
2018-10-09T09:02:25.746Z,17.49
2018-10-09T09:05:00.343Z,17.56
2018-10-09T09:07:35.063Z,17.59
2018-10-09T09:10:09.900Z,17.64
2018-10-09T09:12:44.616Z,17.64
2018-10-09T09:15:19.252Z,17.75
2018-10-09T09:17:54.048Z,17.85
2018-10-09T09:20:28.951Z,18.00
2018-10-09T09:23:03.752Z,18.08
2018-10-09T09:25:38.668Z,18.23
2018-10-09T09:28:13.195Z,18.22
2018-10-09T09:30:47.716Z,18.14
2018-10-09T09:33:22.169Z,18.13
2018-10-09T09:35:58.060Z,18.23
2018-10-09T09:38:32.937Z,18.01
2018-10-09T09:41:08.215Z,17.94
2018-10-09T09:43:42.782Z,17.86
2018-10-09T09:46:17.727Z,17.92
2018-10-09T09:48:53.697Z,18.06
2018-10-09T09:51:28.289Z,18.22
2018-10-09T09:54:02.752Z,18.47
2018-10-09T09:56:37.180Z,18.57
2018-10-09T09:59:12.075Z,18.55
2018-10-09T10:01:46.699Z,18.54
2018-10-09T10:04:21.482Z,18.48
2018-10-09T10:06:56.167Z,18.34
2018-10-09T10:09:30.688Z,18.18
2018-10-09T10:12:05.423Z,18.11
2018-10-09T10:14:39.736Z,18.04
2018-10-09T10:17:14.385Z,18.04
2018-10-09T10:19:49.320Z,18.06
2018-10-09T10:22:23.723Z,18.25
2018-10-09T10:24:58.512Z,18.44
2018-10-09T10:27:33.193Z,18.57
2018-10-09T10:30:07.588Z,18.63
2018-10-09T10:32:41.988Z,18.67
2018-10-09T10:35:16.287Z,18.81
2018-10-09T10:37:51.131Z,18.94
2018-10-09T10:40:26.047Z,18.94
2018-10-09T10:43:00.361Z,18.78
2018-10-09T10:45:35.091Z,18.58
2018-10-09T10:48:09.755Z,18.55
2018-10-09T10:50:44.359Z,18.51
2018-10-09T10:53:19.243Z,18.48
2018-10-09T10:55:54.251Z,18.50
2018-10-09T10:58:29.147Z,18.41
2018-10-09T11:01:04.023Z,18.42
2018-10-09T11:03:39.276Z,18.44
2018-10-09T11:06:14.187Z,18.52
2018-10-09T11:08:50.076Z,18.59
2018-10-09T11:11:24.707Z,18.63
2018-10-09T11:13:58.977Z,18.74
2018-10-09T11:16:33.778Z,18.74
2018-10-09T11:19:09.103Z,18.83
2018-10-09T11:21:44.141Z,18.76
2018-10-09T11:24:19.180Z,18.64
2018-10-09T11:26:53.603Z,18.68
2018-10-09T11:29:28.207Z,18.63
2018-10-09T11:32:03.046Z,18.63
2018-10-09T11:34:37.965Z,18.54
2018-10-09T11:37:12.990Z,18.52
2018-10-09T11:39:48.223Z,18.57
2018-10-09T11:42:23.016Z,18.62
2018-10-09T11:44:58.412Z,18.64
2018-10-09T11:47:33.264Z,18.69
2018-10-09T11:50:08.676Z,18.78
2018-10-09T11:52:43.460Z,18.63
2018-10-09T11:55:18.200Z,18.51
2018-10-09T11:57:52.660Z,18.54
2018-10-09T12:00:27.704Z,18.75
2018-10-09T12:03:02.025Z,19.04
2018-10-09T12:05:36.914Z,19.53
2018-10-09T12:08:11.454Z,19.72
2018-10-09T12:10:46.411Z,19.91
2018-10-09T12:13:21.156Z,19.79
2018-10-09T12:15:55.697Z,19.94
2018-10-09T12:18:30.295Z,20.11
2018-10-09T12:21:04.681Z,20.01
2018-10-09T12:23:39.530Z,19.99
2018-10-09T12:26:14.739Z,20.05
2018-10-09T12:28:49.268Z,19.86
2018-10-09T12:31:23.695Z,19.66
2018-10-09T12:33:58.035Z,19.56
2018-10-09T12:36:32.385Z,19.46
2018-10-09T12:39:09.907Z,19.41
2018-10-09T12:41:45.846Z,19.89
2018-10-09T12:44:20.333Z,20.67
2018-10-09T12:46:55.088Z,21.15
2018-10-09T12:49:29.557Z,21.52
2018-10-09T12:52:04.390Z,21.26
2018-10-09T12:54:39.060Z,20.76
2018-10-09T12:57:13.429Z,20.50
2018-10-09T12:59:48.159Z,21.10
2018-10-09T13:02:23.082Z,21.58
2018-10-09T13:04:57.400Z,21.98
2018-10-09T13:07:31.866Z,21.81
2018-10-09T13:10:06.218Z,21.52
2018-10-09T13:12:41.047Z,21.37
2018-10-09T13:15:15.367Z,21.11
2018-10-09T13:17:50.084Z,21.31
2018-10-09T13:20:25.286Z,21.25
2018-10-09T13:23:00.028Z,21.10
2018-10-09T13:25:34.781Z,21.07
2018-10-09T13:28:09.541Z,20.85
2018-10-09T13:30:44.439Z,20.63
2018-10-09T13:33:19.079Z,20.58
2018-10-09T13:35:54.040Z,20.46
2018-10-09T13:38:28.887Z,20.49
2018-10-09T13:41:03.896Z,20.59
2018-10-09T13:43:38.592Z,20.66
2018-10-09T13:46:13.597Z,20.46
2018-10-09T13:48:50.295Z,20.41
2018-10-09T13:51:24.844Z,20.09
2018-10-09T13:53:59.803Z,19.70
2018-10-09T13:56:34.780Z,19.57
2018-10-09T13:59:09.751Z,19.52
2018-10-09T14:01:44.473Z,19.27
2018-10-09T14:04:19.267Z,19.23
2018-10-09T14:06:53.968Z,19.16
2018-10-09T14:09:28.475Z,19.76
2018-10-09T14:12:03.681Z,20.15
2018-10-09T14:14:38.403Z,20.15
2018-10-09T14:17:13.168Z,20.22
2018-10-09T14:19:48.290Z,20.16
2018-10-09T14:22:22.709Z,19.85
2018-10-09T14:24:57.299Z,19.78
2018-10-09T14:27:31.797Z,19.78
2018-10-09T14:30:20.136Z,19.96
2018-10-09T14:32:54.716Z,20.13
2018-10-09T14:35:29.345Z,20.19
2018-10-09T14:38:04.284Z,20.14
2018-10-09T14:40:39.009Z,20.13
2018-10-09T14:43:13.467Z,20.09
2018-10-09T14:45:47.922Z,20.02
2018-10-09T14:48:23.120Z,19.96
2018-10-09T14:50:57.547Z,19.94
2018-10-09T14:53:31.968Z,19.77
2018-10-09T14:56:07.222Z,19.66
2018-10-09T14:58:41.760Z,19.60
2018-10-09T15:01:16.888Z,19.59
2018-10-09T15:03:51.908Z,19.49
2018-10-09T15:06:26.587Z,19.36
2018-10-09T15:09:01.192Z,19.31
2018-10-09T15:11:35.540Z,19.14
2018-10-09T15:14:11.485Z,19.06
2018-10-09T15:16:46.064Z,19.06
2018-10-09T15:19:21.052Z,18.81
2018-10-09T15:21:55.628Z,18.65
2018-10-09T15:24:30.131Z,18.52
2018-10-09T15:27:05.279Z,18.45
2018-10-09T15:29:39.935Z,18.40
2018-10-09T15:32:26.748Z,18.30
2018-10-09T15:35:01.151Z,18.19
2018-10-09T15:37:35.916Z,18.06
2018-10-09T15:40:11.344Z,18.00
2018-10-09T15:42:46.221Z,17.81
2018-10-09T15:45:20.658Z,17.75
2018-10-09T15:47:55.590Z,17.70
2018-10-09T15:50:29.898Z,17.68
2018-10-09T15:53:08.349Z,17.61
2018-10-09T15:55:50.446Z,17.49
2018-10-09T15:58:31.434Z,17.39
2018-10-09T16:01:06.168Z,17.27
2018-10-09T16:03:48.410Z,17.17
2018-10-09T16:06:29.573Z,17.07
2018-10-09T16:09:10.322Z,16.96
2018-10-09T16:11:45.330Z,16.80
2018-10-09T16:14:20.263Z,16.73
2018-10-09T16:16:55.783Z,16.63
2018-10-09T16:19:32.393Z,16.54
2018-10-09T16:22:08.939Z,16.49
2018-10-09T16:24:53.171Z,16.37
2018-10-09T16:27:27.863Z,16.26
2018-10-09T16:30:03.760Z,16.14
2018-10-09T16:32:44.368Z,16.05
2018-10-09T16:35:19.312Z,15.91
2018-10-09T16:37:53.774Z,15.77
2018-10-09T16:40:28.367Z,15.66
2018-10-09T16:43:04.376Z,15.53
2018-10-09T16:45:38.918Z,15.44
2018-10-09T16:48:13.868Z,15.38
2018-10-09T16:50:48.308Z,15.25
2018-10-09T16:53:22.772Z,15.19
2018-10-09T16:55:57.596Z,15.12
2018-10-09T16:58:32.120Z,15.02
2018-10-09T17:01:12.418Z,14.92
2018-10-09T17:03:46.874Z,14.83
2018-10-09T17:06:22.091Z,14.77
2018-10-09T17:08:56.828Z,14.72
2018-10-09T17:11:31.738Z,14.65
2018-10-09T17:14:06.699Z,14.59
2018-10-09T17:16:41.120Z,14.57
2018-10-09T17:19:15.628Z,14.52
2018-10-09T17:21:50.047Z,14.43
2018-10-09T17:24:24.441Z,14.40
2018-10-09T17:26:58.941Z,14.34
2018-10-09T17:29:33.713Z,14.23
2018-10-09T17:32:08.296Z,14.13
2018-10-09T17:34:43.030Z,14.03
2018-10-09T17:37:17.478Z,13.99
2018-10-09T17:39:52.451Z,13.97
2018-10-09T17:42:32.394Z,13.94
2018-10-09T17:45:07.124Z,13.90
2018-10-09T17:47:41.803Z,13.86
2018-10-09T17:50:16.487Z,13.84
2018-10-09T17:52:51.915Z,13.76
2018-10-09T17:55:26.428Z,13.72
2018-10-09T17:58:01.156Z,13.65
2018-10-09T18:00:35.663Z,13.63
2018-10-09T18:03:10.007Z,13.62
2018-10-09T18:05:46.826Z,13.57
2018-10-09T18:08:21.460Z,13.51
2018-10-09T18:10:55.927Z,13.50
2018-10-09T18:13:30.403Z,13.49
2018-10-09T18:16:05.113Z,13.41
2018-10-09T18:18:39.944Z,13.36
2018-10-09T18:21:14.609Z,13.31
2018-10-09T18:23:49.371Z,13.29
2018-10-09T18:26:23.844Z,13.26
2018-10-09T18:28:58.521Z,13.29
2018-10-09T18:31:32.964Z,13.26
2018-10-09T18:34:07.487Z,13.16
2018-10-09T18:36:42.573Z,13.04
2018-10-09T18:39:17.789Z,12.92
2018-10-09T18:41:52.827Z,12.86
2018-10-09T18:44:27.628Z,12.75
2018-10-09T18:47:02.111Z,12.72
2018-10-09T18:49:37.854Z,12.74
2018-10-09T18:52:12.806Z,12.77
2018-10-09T18:54:47.807Z,12.72
2018-10-09T18:57:22.635Z,12.66
2018-10-09T19:00:01.085Z,12.56
2018-10-09T19:02:36.035Z,12.50
2018-10-09T19:05:11.333Z,12.45
2018-10-09T19:07:45.654Z,12.42
2018-10-09T19:10:20.395Z,12.44
2018-10-09T19:12:55.083Z,12.37
2018-10-09T19:15:29.672Z,12.32
2018-10-09T19:18:04.356Z,12.30
2018-10-09T19:20:39.391Z,12.24
2018-10-09T19:23:14.551Z,12.20
2018-10-09T19:25:49.075Z,12.16
2018-10-09T19:28:24.847Z,12.12
2018-10-09T19:30:59.592Z,12.09
2018-10-09T19:33:34.012Z,12.03
2018-10-09T19:36:09.797Z,11.99
2018-10-09T19:38:44.428Z,11.94
2018-10-09T19:41:18.941Z,11.92
2018-10-09T19:43:53.751Z,11.89
2018-10-09T19:46:28.761Z,11.85
2018-10-09T19:49:07.336Z,11.80
2018-10-09T19:51:42.305Z,11.80
2018-10-09T19:54:16.965Z,11.71
2018-10-09T19:56:51.899Z,11.70
2018-10-09T19:59:27.145Z,11.64
2018-10-09T20:02:02.424Z,11.62
2018-10-09T20:04:37.251Z,11.56
2018-10-09T20:07:13.963Z,11.51
2018-10-09T20:09:48.608Z,11.45
2018-10-09T20:12:23.644Z,11.37
2018-10-09T20:14:58.316Z,11.33
2018-10-09T20:17:33.504Z,11.33
2018-10-09T20:20:08.210Z,11.28
2018-10-09T20:22:49.516Z,11.29
2018-10-09T20:25:24.278Z,11.22
2018-10-09T20:27:59.231Z,11.17
2018-10-09T20:30:34.296Z,11.17
2018-10-09T20:33:08.814Z,11.14
2018-10-09T20:35:43.779Z,11.09
2018-10-09T20:38:19.324Z,11.06
2018-10-09T20:40:55.303Z,11.06
2018-10-09T20:43:30.986Z,11.04
2018-10-09T20:46:05.624Z,11.01
2018-10-09T20:48:42.383Z,10.97
2018-10-09T20:51:16.990Z,10.98
2018-10-09T20:53:51.495Z,10.96
2018-10-09T20:56:26.284Z,10.91
2018-10-09T20:59:02.159Z,10.87
2018-10-09T21:01:37.265Z,10.78
2018-10-09T21:04:12.123Z,10.75
2018-10-09T21:06:46.785Z,10.71
2018-10-09T21:09:21.447Z,10.70
2018-10-09T21:11:56.683Z,10.69
2018-10-09T21:14:31.990Z,10.63
2018-10-09T21:17:06.889Z,10.58
2018-10-09T21:19:42.756Z,10.53
2018-10-09T21:22:18.097Z,10.51
2018-10-09T21:24:52.476Z,10.47
2018-10-09T21:27:27.320Z,10.48
2018-10-09T21:30:01.760Z,10.45
2018-10-09T21:32:36.301Z,10.42
2018-10-09T21:35:12.368Z,10.40
2018-10-09T21:37:46.922Z,10.39
2018-10-09T21:40:21.601Z,10.38
2018-10-09T21:42:56.138Z,10.35
2018-10-09T21:45:31.815Z,10.35
2018-10-09T21:48:06.745Z,10.33
2018-10-09T21:50:41.513Z,10.30
2018-10-09T21:53:15.964Z,10.28
2018-10-09T21:55:50.804Z,10.23
2018-10-09T21:58:25.465Z,10.20
2018-10-09T22:01:05.199Z,10.22
2018-10-09T22:03:40.384Z,10.18
2018-10-09T22:06:14.869Z,10.17
2018-10-09T22:08:49.549Z,10.17
2018-10-09T22:11:24.204Z,10.28
2018-10-09T22:13:58.624Z,10.35
2018-10-09T22:16:33.700Z,10.40
2018-10-09T22:19:08.435Z,10.52
2018-10-09T22:21:43.345Z,10.54
2018-10-09T22:24:18.326Z,10.60
2018-10-09T22:26:53.296Z,10.69
2018-10-09T22:29:27.571Z,10.73
2018-10-09T22:32:02.011Z,10.85
2018-10-09T22:34:36.612Z,10.92
2018-10-09T22:37:11.760Z,10.99
2018-10-09T22:39:46.811Z,11.08
2018-10-09T22:42:21.959Z,11.17
2018-10-09T22:44:56.257Z,11.23
2018-10-09T22:47:30.783Z,11.31
2018-10-09T22:50:05.479Z,11.37
2018-10-09T22:52:39.999Z,11.42
2018-10-09T22:55:14.664Z,11.51
2018-10-09T22:57:49.203Z,11.47
2018-10-09T23:00:24.377Z,11.51
2018-10-09T23:02:58.717Z,11.55
2018-10-09T23:05:34.100Z,11.55
2018-10-09T23:08:09.139Z,11.53
2018-10-09T23:10:44.208Z,11.59
2018-10-09T23:13:18.833Z,11.59
2018-10-09T23:15:53.659Z,11.56
2018-10-09T23:18:28.199Z,11.69
2018-10-09T23:21:02.715Z,11.70
2018-10-09T23:23:38.013Z,11.71
2018-10-09T23:26:12.648Z,11.79
2018-10-09T23:28:47.080Z,11.83
2018-10-09T23:31:21.433Z,11.86
2018-10-09T23:33:56.184Z,11.88
2018-10-09T23:36:30.902Z,11.91
2018-10-09T23:39:07.223Z,12.00
2018-10-09T23:41:41.983Z,12.05
2018-10-09T23:44:16.908Z,12.10
2018-10-09T23:46:51.304Z,12.13
2018-10-09T23:49:25.720Z,12.18
2018-10-09T23:52:00.218Z,12.19
2018-10-09T23:54:34.942Z,12.21
2018-10-09T23:57:09.743Z,12.22
2018-10-09T23:59:44.551Z,12.23
